Time;durP1;ratioP1;P1;durP2;ratioP2;P2;SDS_P1;SDS_P2;PMS_P1;PMS_P2;Temp;Humidity;BMP_temperature;BMP_pressure;BME280_temperature;BME280_humidity;BME280_pressure;Samples;Min_cycle;Max_cycle;Signal;HPM_P1;HPM_P2
2021/12/22 00:01:46;;;;;;;8.37;3.90;;;;;;;-11.20;100.00;101012.02;1725962;82;21485;-66
2021/12/22 00:04:12;;;;;;;8.67;3.83;;;;;;;-11.14;100.00;101009.45;1698723;83;21026;-66
2021/12/22 00:06:39;;;;;;;8.67;4.13;;;;;;;-11.10;100.00;101010.48;1707968;83;20985;-66
2021/12/22 00:09:08;;;;;;;7.97;3.60;;;;;;;-11.06;100.00;101019.80;1704842;83;21053;-66
2021/12/22 00:11:35;;;;;;;7.70;3.87;;;;;;;-11.04;100.00;101021.13;1707322;83;21568;-65
2021/12/22 00:14:03;;;;;;;8.80;4.10;;;;;;;-11.05;100.00;101019.41;1746363;81;21071;-66
2021/12/22 00:16:29;;;;;;;10.67;4.03;;;;;;;-11.06;100.00;101023.92;1707194;83;21060;-66
2021/12/22 00:18:56;;;;;;;9.83;4.47;;;;;;;-11.06;100.00;101035.95;1691974;83;21560;-66
2021/12/22 00:21:23;;;;;;;10.87;4.10;;;;;;;-11.02;100.00;101030.77;1722114;82;21068;-66
2021/12/22 00:23:50;;;;;;;8.37;3.73;;;;;;;-10.99;100.00;101027.17;1710380;83;21097;-66
2021/12/22 00:26:16;;;;;;;9.20;4.83;;;;;;;-10.96;100.00;101027.34;1713415;82;21122;-66
2021/12/22 00:28:45;;;;;;;8.87;4.43;;;;;;;-10.96;100.00;101019.49;1699095;83;21561;-66
2021/12/22 00:31:14;;;;;;;10.30;4.37;;;;;;;-10.90;100.00;101025.17;1753966;81;21012;-66
2021/12/22 00:33:51;;;;;;;13.40;4.60;;;;;;;-10.81;100.00;101019.41;1701446;83;21085;-66
2021/12/22 00:36:22;;;;;;;11.00;4.47;;;;;;;-10.74;100.00;101021.44;1733072;81;21036;-66
2021/12/22 00:38:52;;;;;;;9.03;4.50;;;;;;;-10.69;100.00;101022.91;1723820;82;21580;-65
2021/12/22 00:41:19;;;;;;;12.93;4.60;;;;;;;-10.55;100.00;101028.17;1692023;83;21564;-66
2021/12/22 00:43:45;;;;;;;11.97;4.40;;;;;;;-10.47;100.00;101029.80;1714662;83;21053;-66
2021/12/22 00:46:13;;;;;;;11.97;5.40;;;;;;;-10.41;100.00;101028.85;1701772;83;21137;-66
2021/12/22 00:48:41;;;;;;;13.53;5.23;;;;;;;-10.30;100.00;101040.56;1716093;83;21021;-66
2021/12/22 00:51:08;;;;;;;10.00;5.40;;;;;;;-10.22;100.00;101035.53;1749203;82;21000;-66
2021/12/22 00:53:35;;;;;;;10.53;4.40;;;;;;;-10.13;100.00;101026.03;1749913;81;21128;-66
2021/12/22 00:56:04;;;;;;;9.00;3.80;;;;;;;-10.01;100.00;101028.26;1702814;83;21082;-66
2021/12/22 00:58:31;;;;;;;8.77;3.80;;;;;;;-9.88;100.00;101018.07;1728753;81;21163;-68
2021/12/22 01:00:59;;;;;;;8.90;4.40;;;;;;;-9.72;100.00;101023.78;1722117;81;21063;-66
2021/12/22 01:03:27;;;;;;;11.57;4.77;;;;;;;-9.64;100.00;101018.76;1717202;83;21045;-66
2021/12/22 01:05:54;;;;;;;9.17;4.33;;;;;;;-9.57;100.00;101025.74;1702976;84;21082;-66
2021/12/22 01:08:21;;;;;;;11.60;5.20;;;;;;;-9.51;100.00;101028.52;1737722;81;21056;-65
2021/12/22 01:10:49;;;;;;;10.27;4.67;;;;;;;-9.49;100.00;101025.70;1711798;83;21025;-66
2021/12/22 01:13:16;;;;;;;7.97;3.50;;;;;;;-9.45;100.00;101022.92;1689776;83;21026;-66
2021/12/22 01:15:43;;;;;;;11.60;4.57;;;;;;;-9.37;100.00;101017.05;1757273;81;21531;-66
2021/12/22 01:18:17;;;;;;;10.40;4.93;;;;;;;-9.31;100.00;101016.91;1742481;81;21055;-66
2021/12/22 01:21:01;;;;;;;11.10;4.30;;;;;;;-9.28;100.00;101019.56;1711940;83;21123;-66
2021/12/22 01:23:20;;;;;;;12.93;4.93;;;;;;;-9.22;100.00;101024.34;1703098;83;21092;-66
2021/12/22 01:25:49;;;;;;;13.57;5.30;;;;;;;-9.22;100.00;101026.47;1723811;81;20983;-66
2021/12/22 01:28:18;;;;;;;11.90;5.07;;;;;;;-9.21;100.00;101029.41;1728354;81;21505;-66
2021/12/22 01:30:46;;;;;;;10.30;4.20;;;;;;;-9.17;100.00;101029.16;1738988;81;21486;-66
2021/12/22 01:33:15;;;;;;;9.87;4.30;;;;;;;-9.15;100.00;101030.92;1746222;81;21035;-66
2021/12/22 01:35:44;;;;;;;9.63;5.20;;;;;;;-9.09;100.00;101032.44;1734152;81;21058;-66
2021/12/22 01:38:15;;;;;;;9.40;4.27;;;;;;;-9.01;100.00;101022.80;1728788;81;21081;-66
2021/12/22 01:40:46;;;;;;;9.83;4.90;;;;;;;-8.93;100.00;101028.97;1716095;81;21030;-67
2021/12/22 01:43:16;;;;;;;16.97;5.70;;;;;;;-8.88;100.00;101023.80;1729716;81;21079;-66
2021/12/22 01:51:10;;;;;;;6.77;3.80;;;;;;;-8.80;100.00;101032.84;1708893;83;21525;-67
2021/12/22 01:53:46;;;;;;;9.00;4.77;;;;;;;-8.75;100.00;101038.05;1706105;83;21042;-66
2021/12/22 01:56:26;;;;;;;9.67;4.40;;;;;;;-8.65;100.00;101036.80;1709939;83;21096;-66
2021/12/22 01:58:59;;;;;;;9.30;4.50;;;;;;;-8.56;100.00;101043.41;1702169;82;21096;-65
2021/12/22 02:01:31;;;;;;;9.58;4.12;;;;;;;-8.53;100.00;101036.06;1742069;81;21516;-66
2021/12/22 02:03:58;;;;;;;9.63;3.77;;;;;;;-8.58;100.00;101037.50;1737887;82;21036;-66
2021/12/22 02:06:25;;;;;;;8.80;3.67;;;;;;;-8.71;100.00;101035.73;1734531;81;21517;-66
2021/12/22 02:08:53;;;;;;;8.00;3.43;;;;;;;-8.71;100.00;101038.63;1724684;82;21598;-67
2021/12/22 02:11:21;;;;;;;7.10;3.70;;;;;;;-8.75;100.00;101039.30;1741984;81;21051;-67
2021/12/22 02:13:57;;;;;;;8.90;4.00;;;;;;;-8.81;100.00;101038.62;1710086;83;21088;-67
2021/12/22 02:16:26;;;;;;;7.00;3.30;;;;;;;-8.81;100.00;101047.36;1716827;83;21123;-67
2021/12/22 02:18:52;;;;;;;6.70;3.97;;;;;;;-8.85;100.00;101045.92;1751985;82;21024;-66
2021/12/22 02:21:21;;;;;;;12.53;4.80;;;;;;;-8.83;100.00;101055.58;1729331;81;21036;-66
2021/12/22 02:23:49;;;;;;;10.00;4.40;;;;;;;-8.91;100.00;101057.73;1733138;82;21183;-66
2021/12/22 02:26:21;;;;;;;8.07;4.47;;;;;;;-8.92;100.00;101061.88;1728844;81;21039;-66
2021/12/22 02:28:49;;;;;;;11.77;4.87;;;;;;;-8.92;100.00;101052.27;1746254;81;21464;-66
2021/12/22 02:31:19;;;;;;;7.10;4.17;;;;;;;-8.92;100.00;101056.01;1694204;83;21592;-67
2021/12/22 02:33:48;;;;;;;8.60;4.30;;;;;;;-9.04;100.00;101057.60;1731071;82;21068;-67
2021/12/22 02:38:59;;;;;;;8.37;4.13;;;;;;;-9.28;100.00;101064.44;1738882;82;21530;-66
2021/12/22 02:41:29;;;;;;;10.63;4.67;;;;;;;-9.40;100.00;101074.25;1724725;82;21630;-66
2021/12/22 02:43:59;;;;;;;9.23;4.17;;;;;;;-9.50;100.00;101071.73;1722829;81;21030;-66
2021/12/22 02:46:31;;;;;;;10.80;4.80;;;;;;;-9.68;100.00;101073.81;1744170;81;21044;-67
2021/12/22 02:49:01;;;;;;;9.97;4.47;;;;;;;-9.72;100.00;101078.19;1704858;83;21053;-67
2021/12/22 02:51:29;;;;;;;12.63;4.37;;;;;;;-9.75;100.00;101085.91;1728191;82;21074;-66
2021/12/22 02:56:40;;;;;;;17.83;5.87;;;;;;;-9.88;100.00;101092.80;1704454;83;21113;-67
2021/12/22 03:02:09;;;;;;;10.97;5.27;;;;;;;-9.98;100.00;101099.36;1753887;82;21036;-67
2021/12/22 03:04:30;;;;;;;10.60;4.67;;;;;;;-10.04;100.00;101104.05;1750282;82;21044;-67
2021/12/22 03:07:04;;;;;;;11.87;4.40;;;;;;;-10.07;100.00;101103.91;1697301;83;21089;-67
2021/12/22 03:09:34;;;;;;;9.67;4.37;;;;;;;-10.14;100.00;101105.22;1698855;83;21545;-67
2021/12/22 03:12:06;;;;;;;14.38;4.90;;;;;;;-10.18;100.00;101111.23;1704772;83;21050;-67
2021/12/22 03:14:35;;;;;;;12.88;5.22;;;;;;;-10.23;100.00;101117.23;1753426;82;20987;-67
2021/12/22 03:17:03;;;;;;;9.57;4.43;;;;;;;-10.31;100.00;101113.14;1742892;82;21076;-67
2021/12/22 03:19:34;;;;;;;11.47;5.13;;;;;;;-10.37;100.00;101119.06;1703213;83;21738;-67
2021/12/22 03:22:07;;;;;;;10.40;5.07;;;;;;;-10.43;100.00;101126.22;1728856;81;21604;-66
2021/12/22 03:24:35;;;;;;;9.17;4.13;;;;;;;-10.53;100.00;101135.23;1719493;81;21899;-66
2021/12/22 03:27:07;;;;;;;11.03;4.07;;;;;;;-10.58;100.00;101135.37;1728587;82;21079;-67
2021/12/22 03:29:37;;;;;;;8.57;3.73;;;;;;;-10.63;100.00;101143.01;1733131;82;21052;-66
2021/12/22 03:32:07;;;;;;;6.90;3.60;;;;;;;-10.71;100.00;101145.94;1712240;81;21072;-67
2021/12/22 03:34:35;;;;;;;7.30;3.43;;;;;;;-10.74;100.00;101144.95;1742947;81;21067;-67
2021/12/22 03:37:04;;;;;;;6.47;4.17;;;;;;;-10.84;100.00;101143.61;1701895;83;21069;-67
2021/12/22 03:39:32;;;;;;;9.57;3.77;;;;;;;-10.89;100.00;101152.44;1717243;83;21033;-67
2021/12/22 03:41:59;;;;;;;5.70;3.47;;;;;;;-11.00;100.00;101153.13;1743531;81;21008;-66
2021/12/22 03:44:26;;;;;;;7.87;3.83;;;;;;;-11.00;100.00;101151.03;1695942;82;21045;-66
2021/12/22 03:46:56;;;;;;;5.67;3.10;;;;;;;-11.04;100.00;101151.64;1728274;81;21092;-66
2021/12/22 03:49:23;;;;;;;4.73;2.80;;;;;;;-11.10;100.00;101151.77;1748192;81;21035;-67
2021/12/22 03:51:49;;;;;;;7.20;2.90;;;;;;;-11.16;100.00;101151.44;1753030;81;21460;-66
2021/12/22 03:54:16;;;;;;;6.40;2.63;;;;;;;-11.25;100.00;101157.54;1729901;82;21503;-67
2021/12/22 03:56:43;;;;;;;4.67;2.33;;;;;;;-11.29;100.00;101166.48;1712860;83;21033;-67
2021/12/22 03:59:10;;;;;;;5.87;2.80;;;;;;;-11.32;100.00;101172.52;1702161;83;21124;-67
2021/12/22 04:01:38;;;;;;;5.17;2.87;;;;;;;-11.39;100.00;101170.45;1708260;83;21021;-67
2021/12/22 04:04:12;;;;;;;5.10;2.77;;;;;;;-11.44;100.00;101175.17;1735164;82;21522;-66
2021/12/22 04:06:34;;;;;;;4.87;2.87;;;;;;;-11.49;100.00;101177.41;1706639;83;21045;-66
2021/12/22 04:09:03;;;;;;;5.63;2.93;;;;;;;-11.56;100.00;101174.09;1717309;83;21010;-67
2021/12/22 04:11:30;;;;;;;11.40;4.13;;;;;;;-11.58;100.00;101184.73;1734802;82;21032;-66
2021/12/22 04:13:57;;;;;;;13.03;5.60;;;;;;;-11.64;100.00;101188.95;1705114;83;21049;-66
2021/12/22 04:16:24;;;;;;;17.53;6.27;;;;;;;-11.69;100.00;101198.64;1742240;81;21047;-67
2021/12/22 04:18:51;;;;;;;17.67;5.87;;;;;;;-11.74;100.00;101201.27;1743442;81;21056;-67
2021/12/22 04:21:18;;;;;;;13.17;5.37;;;;;;;-11.82;100.00;101201.18;1699270;83;21049;-66
2021/12/22 04:23:46;;;;;;;15.80;5.90;;;;;;;-11.81;100.00;101209.12;1744215;81;21095;-66
2021/12/22 04:26:13;;;;;;;17.53;6.23;;;;;;;-11.80;100.00;101213.69;1750771;81;21055;-66
2021/12/22 04:28:41;;;;;;;15.90;6.73;;;;;;;-11.79;100.00;101217.52;1717386;83;21096;-66
2021/12/22 04:31:08;;;;;;;17.33;6.70;;;;;;;-11.77;100.00;101220.94;1740875;82;21094;-66
2021/12/22 04:33:35;;;;;;;15.10;6.57;;;;;;;-11.80;100.00;101223.27;1741153;82;21051;-67
2021/12/22 04:36:03;;;;;;;13.97;6.20;;;;;;;-11.78;100.00;101219.60;1735980;82;21154;-67
2021/12/22 04:38:29;;;;;;;19.23;6.60;;;;;;;-11.76;100.00;101221.79;1722663;81;21030;-67
2021/12/22 04:40:58;;;;;;;16.73;5.53;;;;;;;-11.74;100.00;101222.73;1718286;81;21029;-67
2021/12/22 04:43:25;;;;;;;13.00;5.13;;;;;;;-11.69;100.00;101223.87;1724061;81;21580;-66
2021/12/22 04:45:51;;;;;;;13.20;4.40;;;;;;;-11.69;100.00;101222.23;1711851;83;21046;-67
2021/12/22 04:48:18;;;;;;;9.77;4.37;;;;;;;-11.60;100.00;101226.01;1699181;83;21061;-67
2021/12/22 04:50:45;;;;;;;10.23;4.67;;;;;;;-11.55;100.00;101229.23;1697057;83;21057;-66
2021/12/22 04:53:22;;;;;;;12.63;4.07;;;;;;;-11.48;100.00;101235.39;1698950;83;21030;-66
2021/12/22 04:55:42;;;;;;;8.43;3.67;;;;;;;-11.36;100.00;101235.23;1698697;83;21097;-67
2021/12/22 04:58:11;;;;;;;9.77;4.30;;;;;;;-11.31;100.00;101230.15;1711035;83;21564;-66
2021/12/22 05:00:39;;;;;;;11.57;4.47;;;;;;;-11.24;100.00;101237.16;1689435;83;20996;-66
2021/12/22 05:03:06;;;;;;;10.27;4.33;;;;;;;-11.16;100.00;101234.70;1724564;82;21484;-66
2021/12/22 05:05:33;;;;;;;12.50;4.13;;;;;;;-11.06;100.00;101243.94;1728713;81;21104;-67
2021/12/22 05:08:01;;;;;;;10.17;4.33;;;;;;;-11.06;100.00;101240.20;1719307;82;21091;-66
2021/12/22 05:10:28;;;;;;;6.00;3.33;;;;;;;-11.01;100.00;101240.05;1726493;81;21078;-66
2021/12/22 05:12:56;;;;;;;8.63;3.87;;;;;;;-10.94;100.00;101242.11;1738370;82;21106;-66
2021/12/22 05:15:28;;;;;;;7.90;2.70;;;;;;;-10.77;100.00;101248.84;1723712;81;21133;-66
2021/12/22 05:20:22;;;;;;;7.07;3.10;;;;;;;-10.61;100.00;101255.89;1736616;81;21571;-67
2021/12/22 05:22:50;;;;;;;6.07;3.03;;;;;;;-10.60;100.00;101252.62;1726024;82;21031;-66
2021/12/22 05:25:17;;;;;;;5.33;2.80;;;;;;;-10.54;100.00;101266.63;1721309;82;21165;-67
2021/12/22 05:27:43;;;;;;;8.27;3.33;;;;;;;-10.56;100.00;101267.81;1739319;82;21020;-67
2021/12/22 05:30:13;;;;;;;6.00;2.93;;;;;;;-10.57;100.00;101272.70;1728549;82;21579;-67
2021/12/22 05:32:40;;;;;;;6.87;3.33;;;;;;;-10.61;100.00;101279.53;1731686;82;21032;-67
2021/12/22 05:35:10;;;;;;;8.93;2.97;;;;;;;-10.58;100.00;101286.78;1730878;81;21575;-66
2021/12/22 05:37:40;;;;;;;8.00;3.60;;;;;;;-10.76;100.00;101300.70;1730407;82;21036;-66
2021/12/22 05:40:09;;;;;;;6.13;3.33;;;;;;;-10.80;100.00;101296.34;1717605;81;21023;-66
2021/12/22 05:42:37;;;;;;;5.80;3.50;;;;;;;-10.92;100.00;101304.83;1730373;81;21068;-66
2021/12/22 05:45:06;;;;;;;10.00;3.87;;;;;;;-11.01;100.00;101302.20;1720689;82;21095;-66
2021/12/22 05:47:33;;;;;;;7.43;4.03;;;;;;;-11.09;100.00;101303.90;1730736;82;21036;-66
2021/12/22 05:50:03;;;;;;;13.13;4.97;;;;;;;-11.12;100.00;101302.47;1730438;82;21127;-66
2021/12/22 05:52:31;;;;;;;22.63;6.97;;;;;;;-11.15;100.00;101302.67;1719934;82;21519;-67
2021/12/22 05:54:57;;;;;;;16.27;5.67;;;;;;;-11.20;100.00;101295.36;1741780;82;21535;-66
2021/12/22 05:57:24;;;;;;;14.60;5.87;;;;;;;-11.19;100.00;101300.42;1727549;82;21618;-67
2021/12/22 05:59:51;;;;;;;10.83;5.27;;;;;;;-11.18;100.00;101300.88;1738594;82;21031;-66
2021/12/22 06:02:17;;;;;;;9.93;4.40;;;;;;;-11.27;100.00;101300.38;1729104;82;21104;-67
2021/12/22 06:04:44;;;;;;;9.43;4.60;;;;;;;-11.30;100.00;101310.98;1723198;82;21012;-66
2021/12/22 06:07:11;;;;;;;12.17;5.43;;;;;;;-11.23;100.00;101310.08;1731845;82;21017;-67
2021/12/22 06:09:37;;;;;;;14.03;5.93;;;;;;;-11.16;100.00;101314.64;1730584;82;21534;-67
2021/12/22 06:12:05;;;;;;;11.93;4.90;;;;;;;-11.18;100.00;101316.19;1738095;82;21060;-67
2021/12/22 06:14:33;;;;;;;11.70;5.73;;;;;;;-11.18;100.00;101319.91;1735184;81;21001;-67
2021/12/22 06:17:00;;;;;;;10.77;5.13;;;;;;;-11.17;100.00;101317.52;1724603;81;21511;-66
2021/12/22 06:19:27;;;;;;;9.27;4.83;;;;;;;-11.20;100.00;101321.45;1739045;82;21000;-67
2021/12/22 06:21:54;;;;;;;7.10;4.00;;;;;;;-11.21;100.00;101328.42;1745470;81;21554;-66
2021/12/22 06:24:22;;;;;;;12.10;4.57;;;;;;;-11.22;100.00;101330.06;1720167;82;21066;-67
2021/12/22 06:26:50;;;;;;;8.53;4.37;;;;;;;-11.23;100.00;101325.00;1736551;81;21098;-66
2021/12/22 06:29:16;;;;;;;9.30;4.83;;;;;;;-11.19;100.00;101325.28;1736637;81;21066;-66
2021/12/22 06:31:43;;;;;;;12.93;6.40;;;;;;;-11.21;100.00;101328.06;1723712;82;21060;-66
2021/12/22 06:34:10;;;;;;;11.43;5.57;;;;;;;-11.14;100.00;101324.29;1732945;82;21056;-67
2021/12/22 06:36:37;;;;;;;18.03;7.67;;;;;;;-11.15;100.00;101324.68;1725172;82;21072;-67
2021/12/22 06:39:05;;;;;;;19.07;7.73;;;;;;;-11.09;100.00;101330.00;1735302;82;21039;-67
2021/12/22 06:41:33;;;;;;;17.17;7.37;;;;;;;-11.02;100.00;101331.59;1738437;81;21056;-66
2021/12/22 06:44:00;;;;;;;17.67;7.60;;;;;;;-11.02;100.00;101338.66;1724081;81;21035;-66
2021/12/22 06:46:28;;;;;;;14.80;5.87;;;;;;;-10.98;100.00;101336.81;1734853;82;21064;-66
2021/12/22 06:48:55;;;;;;;15.50;6.40;;;;;;;-10.89;100.00;101333.97;1721832;82;21078;-66
2021/12/22 06:51:21;;;;;;;16.17;5.97;;;;;;;-10.83;100.00;101333.06;1741311;82;21058;-66
2021/12/22 06:53:48;;;;;;;14.37;6.00;;;;;;;-10.78;100.00;101342.05;1747848;82;21473;-67
2021/12/22 06:56:15;;;;;;;14.97;6.03;;;;;;;-10.67;100.00;101345.97;1734966;82;21082;-67
2021/12/22 06:58:42;;;;;;;12.70;4.87;;;;;;;-10.70;100.00;101345.42;1746646;82;21087;-67
2021/12/22 07:01:16;;;;;;;12.77;5.30;;;;;;;-10.62;100.00;101339.63;1739127;81;21020;-67
2021/12/22 07:03:38;;;;;;;13.30;6.27;;;;;;;-10.52;100.00;101342.21;1726422;82;21036;-66
2021/12/22 07:06:06;;;;;;;11.60;5.20;;;;;;;-10.39;100.00;101347.48;1668969;84;21126;-66
2021/12/22 07:08:33;;;;;;;17.37;5.60;;;;;;;-10.33;100.00;101351.16;1735771;81;20984;-67
2021/12/22 07:11:00;;;;;;;12.67;6.00;;;;;;;-10.31;100.00;101362.05;1746490;81;21163;-67
2021/12/22 07:13:27;;;;;;;11.90;5.77;;;;;;;-10.30;100.00;101352.58;1744450;80;21022;-66
2021/12/22 07:15:55;;;;;;;16.47;6.73;;;;;;;-10.29;100.00;101353.00;1745813;81;21013;-67
2021/12/22 07:18:22;;;;;;;18.57;7.27;;;;;;;-10.25;100.00;101363.98;1741022;80;21502;-66
2021/12/22 07:20:49;;;;;;;15.57;6.97;;;;;;;-10.25;100.00;101364.39;1748775;81;21061;-67
2021/12/22 07:23:16;;;;;;;16.37;6.80;;;;;;;-10.17;100.00;101359.03;1693534;83;21119;-66
2021/12/22 07:25:43;;;;;;;13.57;5.70;;;;;;;-10.05;100.00;101361.33;1701619;82;21028;-67
2021/12/22 07:28:10;;;;;;;16.70;6.47;;;;;;;-10.13;100.00;101358.81;1710027;83;21055;-66
2021/12/22 07:30:39;;;;;;;12.23;5.97;;;;;;;-10.01;100.00;101360.71;1713146;82;21094;-66
2021/12/22 07:33:06;;;;;;;13.90;6.53;;;;;;;-10.04;100.00;101359.68;1733479;81;21475;-67
2021/12/22 07:35:39;;;;;;;16.43;5.60;;;;;;;-9.95;100.00;101360.18;1754960;80;21043;-67
2021/12/22 07:38:31;;;;;;;11.33;5.60;;;;;;;-9.85;100.00;101369.84;1755817;80;20979;-67
2021/12/22 07:41:00;;;;;;;13.67;5.60;;;;;;;-9.74;100.00;101362.92;1761280;80;20976;-66
2021/12/22 07:43:29;;;;;;;11.37;5.70;;;;;;;-9.72;100.00;101363.47;1749418;81;21515;-67
2021/12/22 07:45:57;;;;;;;12.73;6.03;;;;;;;-9.68;100.00;101364.09;1745481;80;21060;-66
2021/12/22 07:48:24;;;;;;;13.17;5.77;;;;;;;-9.63;100.00;101364.71;1745905;80;21136;-67
2021/12/22 07:50:51;;;;;;;11.73;5.80;;;;;;;-9.59;100.00;101363.73;1691481;83;21033;-67
2021/12/22 07:53:18;;;;;;;12.37;6.00;;;;;;;-9.52;100.00;101363.64;1709368;82;21004;-66
2021/12/22 07:55:46;;;;;;;13.93;6.47;;;;;;;-9.50;100.00;101366.67;1712022;82;21553;-67
2021/12/22 07:58:14;;;;;;;10.27;5.23;;;;;;;-9.38;100.00;101370.18;1738670;81;20992;-67
2021/12/22 08:00:42;;;;;;;11.83;6.00;;;;;;;-9.42;100.00;101362.48;1747419;81;20948;-67
2021/12/22 08:03:12;;;;;;;10.57;5.90;;;;;;;-9.32;100.00;101365.50;1759290;80;21036;-67
2021/12/22 08:05:39;;;;;;;11.97;5.67;;;;;;;-9.32;100.00;101363.01;1760002;80;21024;-67
2021/12/22 08:08:06;;;;;;;13.53;5.77;;;;;;;-9.18;100.00;101368.69;1685685;83;21103;-67
2021/12/22 08:10:34;;;;;;;12.13;6.17;;;;;;;-9.05;100.00;101364.30;1716916;83;21041;-67
2021/12/22 08:13:01;;;;;;;14.67;6.17;;;;;;;-9.10;100.00;101367.43;1766606;81;21013;-67
2021/12/22 08:15:29;;;;;;;14.83;6.53;;;;;;;-9.13;100.00;101367.27;1754822;81;21091;-67
2021/12/22 08:17:57;;;;;;;15.13;6.43;;;;;;;-9.16;100.00;101370.02;1686704;84;21064;-67
2021/12/22 08:20:24;;;;;;;17.50;7.97;;;;;;;-9.10;100.00;101368.67;1716245;82;21051;-67
2021/12/22 08:22:52;;;;;;;17.50;7.33;;;;;;;-9.06;100.00;101364.70;1698838;84;21088;-67
2021/12/22 08:25:20;;;;;;;14.37;6.27;;;;;;;-9.01;100.00;101362.42;1753606;81;21380;-67
2021/12/22 08:27:47;;;;;;;17.03;6.63;;;;;;;-9.07;100.00;101360.48;1733409;81;21056;-67
2021/12/22 08:30:14;;;;;;;13.40;6.03;;;;;;;-8.98;100.00;101359.70;1714310;82;21020;-67
2021/12/22 08:32:42;;;;;;;12.47;5.80;;;;;;;-8.85;100.00;101359.04;1729576;81;21035;-67
2021/12/22 08:35:11;;;;;;;12.43;6.20;;;;;;;-8.72;100.00;101369.69;1733233;82;21087;-67
2021/12/22 08:40:24;;;;;;;11.73;6.20;;;;;;;-8.64;100.00;101348.81;1731097;82;21047;-67
2021/12/22 08:42:53;;;;;;;11.50;5.40;;;;;;;-8.59;100.00;101362.78;1758766;80;20968;-67
2021/12/22 08:45:20;;;;;;;11.53;5.63;;;;;;;-8.60;100.00;101369.39;1746764;81;21052;-67
2021/12/22 08:47:48;;;;;;;12.53;6.33;;;;;;;-8.62;100.00;101360.98;1754869;81;21067;-67
2021/12/22 08:50:17;;;;;;;11.53;5.70;;;;;;;-8.60;100.00;101370.64;1688527;84;21043;-67
2021/12/22 08:52:45;;;;;;;12.37;6.13;;;;;;;-8.54;100.00;101368.44;1718127;83;21079;-66
2021/12/22 08:55:13;;;;;;;14.27;6.77;;;;;;;-8.49;100.00;101366.17;1752005;81;21550;-67
2021/12/22 08:57:41;;;;;;;18.70;7.73;;;;;;;-8.51;100.00;101365.25;1748532;81;21048;-67
2021/12/22 09:00:11;;;;;;;20.87;7.13;;;;;;;-8.48;100.00;101363.73;1749466;81;21023;-67
2021/12/22 09:02:40;;;;;;;17.90;6.60;;;;;;;-8.42;100.00;101359.42;1751789;81;21011;-67
2021/12/22 09:05:08;;;;;;;14.03;6.33;;;;;;;-8.30;100.00;101349.12;1751135;81;21015;-67
2021/12/22 09:07:35;;;;;;;13.27;5.43;;;;;;;-8.28;100.00;101345.89;1749428;81;21532;-67
2021/12/22 09:10:04;;;;;;;18.53;7.60;;;;;;;-8.22;100.00;101351.57;1750868;81;21027;-67
2021/12/22 09:12:32;;;;;;;16.90;7.33;;;;;;;-8.08;100.00;101348.45;1753689;81;21063;-67
2021/12/22 09:14:59;;;;;;;13.97;6.30;;;;;;;-7.97;100.00;101348.52;1754389;81;21018;-67
2021/12/22 09:17:26;;;;;;;11.77;5.57;;;;;;;-8.00;100.00;101350.91;1748424;81;21542;-67
2021/12/22 09:19:53;;;;;;;13.20;6.40;;;;;;;-7.93;100.00;101345.37;1744868;81;21016;-67
2021/12/22 09:22:21;;;;;;;13.33;6.50;;;;;;;-7.99;100.00;101346.35;1755017;81;21004;-67
2021/12/22 09:24:49;;;;;;;14.17;6.80;;;;;;;-8.02;100.00;101345.38;1752283;81;21103;-67
2021/12/22 09:27:17;;;;;;;11.90;5.60;;;;;;;-8.07;100.00;101348.91;1753959;81;21039;-67
2021/12/22 09:29:45;;;;;;;14.67;7.00;;;;;;;-8.00;100.00;101337.56;1748754;81;21037;-67
2021/12/22 09:32:15;;;;;;;16.00;7.10;;;;;;;-7.92;100.00;101343.36;1748268;81;21117;-67
2021/12/22 09:34:44;;;;;;;13.27;5.93;;;;;;;-7.91;100.00;101346.70;1715083;83;20984;-67
2021/12/22 09:37:12;;;;;;;13.27;6.60;;;;;;;-7.97;100.00;101342.68;1748783;81;21523;-66
2021/12/22 09:39:39;;;;;;;11.73;6.10;;;;;;;-7.90;100.00;101346.77;1749692;81;21040;-67
2021/12/22 09:42:08;;;;;;;12.97;6.63;;;;;;;-7.85;100.00;101350.72;1749477;81;21051;-66
2021/12/22 09:44:44;;;;;;;15.10;6.90;;;;;;;-7.83;100.00;101347.05;1750858;81;21051;-67
2021/12/22 09:47:06;;;;;;;16.17;7.00;;;;;;;-7.71;100.00;101348.42;1743750;80;21632;-67
2021/12/22 09:49:47;;;;;;;12.47;6.43;;;;;;;-7.65;100.00;101347.84;1727763;82;21519;-67
2021/12/22 09:52:27;;;;;;;12.80;5.63;;;;;;;-7.69;100.00;101348.09;1734424;81;21502;-67
2021/12/22 09:54:59;;;;;;;14.80;6.57;;;;;;;-7.63;100.00;101342.52;1725187;82;21102;-67
2021/12/22 09:57:28;;;;;;;18.15;6.55;;;;;;;-7.65;100.00;101349.09;1717138;82;21118;-66
2021/12/22 09:59:58;;;;;;;11.00;5.60;;;;;;;-7.64;100.00;101340.82;1745327;81;21172;-66
2021/12/22 10:02:29;;;;;;;13.87;5.73;;;;;;;-7.74;100.00;101354.56;1744996;80;21101;-67
2021/12/22 10:05:01;;;;;;;12.90;5.80;;;;;;;-7.76;100.00;101342.79;1722018;82;21554;-67
2021/12/22 10:07:30;;;;;;;11.10;5.87;;;;;;;-7.71;100.00;101341.33;1737164;81;21063;-67
2021/12/22 10:10:08;;;;;;;12.10;5.27;;;;;;;-7.57;100.00;101343.18;1730809;81;21032;-67
2021/12/22 10:12:35;;;;;;;12.27;5.50;;;;;;;-7.54;100.00;101344.55;1720316;82;21053;-66
2021/12/22 10:15:07;;;;;;;9.47;4.83;;;;;;;-7.59;100.00;101345.61;1747421;82;21044;-67
2021/12/22 10:17:40;;;;;;;9.75;5.28;;;;;;;-7.52;100.00;101340.09;1727475;82;21070;-67
2021/12/22 10:20:17;;;;;;;11.70;6.23;;;;;;;-7.40;100.00;101344.77;1733497;81;21531;-67
2021/12/22 10:22:48;;;;;;;15.87;6.37;;;;;;;-7.35;100.00;101341.20;1741594;80;21095;-67
2021/12/22 10:25:22;;;;;;;11.03;5.47;;;;;;;-7.22;100.00;101339.66;1749844;80;21028;-67
2021/12/22 10:28:05;;;;;;;;;;;;;;;-7.20;100.00;101330.97;1755334;81;21492;-67
2021/12/22 10:30:38;;;;;;;10.43;5.75;;;;;;;-7.13;100.00;101327.54;1752886;81;20144;-67
2021/12/22 10:33:10;;;;;;;10.63;5.70;;;;;;;-7.17;100.00;101323.20;1749316;81;21072;-67
2021/12/22 10:35:40;;;;;;;12.27;5.17;;;;;;;-7.18;100.00;101321.48;1748753;81;21606;-67
2021/12/22 10:38:09;;;;;;;10.57;5.60;;;;;;;-7.24;100.00;101331.23;1753436;81;21015;-67
2021/12/22 10:40:44;;;;;;;13.00;5.77;;;;;;;-7.18;100.00;101326.89;1752434;81;21111;-66
2021/12/22 10:43:22;;;;;;;11.27;5.33;;;;;;;-7.11;100.00;101332.61;1751142;81;21075;-67
2021/12/22 10:45:56;;;;;;;10.47;5.70;;;;;;;-7.14;100.00;101327.06;1755105;81;21055;-66
2021/12/22 10:51:20;;;;;;;14.33;5.90;;;;;;;-7.13;100.00;101327.94;1749896;81;21060;-67
2021/12/22 10:53:48;;;;;;;9.90;5.10;;;;;;;-7.16;100.00;101334.06;1751227;81;21088;-67
2021/12/22 10:56:31;;;;;;;9.93;5.53;;;;;;;-7.15;100.00;101333.28;1751334;81;21031;-67
2021/12/22 10:59:06;;;;;;;9.80;5.17;;;;;;;-7.15;100.00;101330.38;1751039;80;21532;-67
2021/12/22 11:01:37;;;;;;;8.77;4.17;;;;;;;-7.13;100.00;101329.20;1688806;84;21052;-66
2021/12/22 11:04:15;;;;;;;11.27;5.50;;;;;;;-7.03;100.00;101330.40;1761666;80;21034;-67
2021/12/22 11:06:42;;;;;;;10.97;5.03;;;;;;;-6.91;100.00;101334.68;1758055;80;22225;-67
2021/12/22 11:09:14;;;;;;;12.87;5.27;;;;;;;-6.79;100.00;101343.05;1762162;81;21033;-67
2021/12/22 11:11:58;;;;;;;10.80;5.83;;;;;;;-6.67;100.00;101344.78;1761075;81;21561;-67
2021/12/22 11:14:29;;;;;;;12.23;5.65;;;;;;;-6.57;100.00;101342.25;1680739;82;21012;-67
2021/12/22 11:17:11;;;;;;;9.97;4.73;;;;;;;-6.37;100.00;101341.77;1703124;84;21123;-67
2021/12/22 11:19:58;;;;;;;10.27;5.53;;;;;;;-6.42;100.00;101337.00;1726211;81;21543;-66
2021/12/22 11:22:47;;;;;;;10.87;5.77;;;;;;;-6.55;100.00;101339.41;1717826;82;21590;-67
2021/12/22 11:25:12;;;;;;;11.53;5.73;;;;;;;-6.58;100.00;101343.06;1651456;85;21090;-67
2021/12/22 11:27:39;;;;;;;11.20;5.10;;;;;;;-6.60;100.00;101342.15;1701051;84;21084;-67
2021/12/22 11:30:08;;;;;;;13.57;5.80;;;;;;;-6.43;100.00;101337.38;1663125;83;21075;-66
2021/12/22 11:32:36;;;;;;;15.83;5.60;;;;;;;-6.49;100.00;101343.03;1688504;84;21048;-67
2021/12/22 11:35:10;;;;;;;11.07;5.17;;;;;;;-6.47;100.00;101350.20;1700315;83;21036;-67
2021/12/22 11:37:39;;;;;;;15.13;6.10;;;;;;;-6.56;100.00;101353.59;1700525;83;21087;-67
2021/12/22 11:40:10;;;;;;;11.63;5.07;;;;;;;-6.42;100.00;101350.78;1650701;84;21133;-67